sensor_id;sensor_type;location;lat;lon;timestamp;pressure;altitude;pressure_sealevel;temperature;humidity
63582;BME280;49727;51.078;17.066;2023-05-19T00:06:06;101186.81;;;9.81;63.25
63582;BME280;49727;51.078;17.066;2023-05-19T00:21:10;101194.50;;;9.55;64.19
63582;BME280;49727;51.078;17.066;2023-05-19T00:36:10;101190.81;;;9.26;64.91
63582;BME280;49727;51.078;17.066;2023-05-19T00:51:12;101184.38;;;9.19;66.07
63582;BME280;49727;51.078;17.066;2023-05-19T01:06:15;101193.09;;;9.31;66.33
63582;BME280;49727;51.078;17.066;2023-05-19T01:36:43;101195.59;;;9.32;66.98
63582;BME280;49727;51.078;17.066;2023-05-19T01:51:48;101190.56;;;9.29;67.57
63582;BME280;49727;51.078;17.066;2023-05-19T02:07:08;101187.34;;;9.26;67.75
63582;BME280;49727;51.078;17.066;2023-05-19T02:22:08;101192.22;;;9.30;68.04
63582;BME280;49727;51.078;17.066;2023-05-19T02:37:10;101173.75;;;9.29;68.25
63582;BME280;49727;51.078;17.066;2023-05-19T02:52:11;101173.75;;;9.29;68.52
63582;BME280;49727;51.078;17.066;2023-05-19T03:07:11;101177.38;;;9.28;68.92
63582;BME280;49727;51.078;17.066;2023-05-19T03:22:15;101186.09;;;9.40;69.10
63582;BME280;49727;51.078;17.066;2023-05-19T03:37:17;101168.47;;;9.58;68.80
63582;BME280;49727;51.078;17.066;2023-05-19T03:52:18;101176.59;;;9.76;69.58
63582;BME280;49727;51.078;17.066;2023-05-19T04:07:18;101179.09;;;9.97;69.44
63582;BME280;49727;51.078;17.066;2023-05-19T04:22:18;101182.38;;;10.29;68.87
63582;BME280;49727;51.078;17.066;2023-05-19T04:37:19;101178.22;;;10.74;68.23
63582;BME280;49727;51.078;17.066;2023-05-19T04:52:19;101184.91;;;11.06;68.28
63582;BME280;49727;51.078;17.066;2023-05-19T05:07:21;101188.41;;;11.34;67.37
63582;BME280;49727;51.078;17.066;2023-05-19T05:22:22;101186.72;;;11.33;66.77
63582;BME280;49727;51.078;17.066;2023-05-19T05:37:22;101190.31;;;11.42;66.69
63582;BME280;49727;51.078;17.066;2023-05-19T05:52:26;101193.38;;;11.65;66.37
63582;BME280;49727;51.078;17.066;2023-05-19T06:07:28;101195.78;;;12.12;65.08
63582;BME280;49727;51.078;17.066;2023-05-19T06:22:29;101214.50;;;12.12;64.64
63582;BME280;49727;51.078;17.066;2023-05-19T06:37:29;101215.66;;;12.10;65.06
63582;BME280;49727;51.078;17.066;2023-05-19T06:52:30;101223.06;;;11.98;64.71
63582;BME280;49727;51.078;17.066;2023-05-19T07:07:30;101225.16;;;12.12;64.87
63582;BME280;49727;51.078;17.066;2023-05-19T07:22:30;101233.50;;;12.09;64.93
63582;BME280;49727;51.078;17.066;2023-05-19T07:37:31;101236.50;;;12.06;64.60
63582;BME280;49727;51.078;17.066;2023-05-19T07:52:31;101234.56;;;12.16;64.67
63582;BME280;49727;51.078;17.066;2023-05-19T08:07:31;101235.59;;;12.42;64.32
63582;BME280;49727;51.078;17.066;2023-05-19T08:22:32;101220.97;;;13.31;64.52
63582;BME280;49727;51.078;17.066;2023-05-19T08:37:33;101215.91;;;14.20;62.24
63582;BME280;49727;51.078;17.066;2023-05-19T08:52:52;101222.72;;;14.48;60.47
63582;BME280;49727;51.078;17.066;2023-05-19T09:07:54;101215.16;;;15.39;59.27
63582;BME280;49727;51.078;17.066;2023-05-19T09:22:58;101214.66;;;16.51;56.32
63582;BME280;49727;51.078;17.066;2023-05-19T09:37:59;101204.56;;;17.35;53.97
63582;BME280;49727;51.078;17.066;2023-05-19T09:53:00;101189.63;;;17.97;51.82
63582;BME280;49727;51.078;17.066;2023-05-19T10:08:02;101173.84;;;17.94;51.19
63582;BME280;49727;51.078;17.066;2023-05-19T10:23:06;101182.06;;;17.06;50.47
63582;BME280;49727;51.078;17.066;2023-05-19T10:38:30;101171.41;;;15.85;52.28
63582;BME280;49727;51.078;17.066;2023-05-19T10:53:32;101177.28;;;15.88;53.70
63582;BME280;49727;51.078;17.066;2023-05-19T11:08:34;101173.06;;;15.39;54.56
63582;BME280;49727;51.078;17.066;2023-05-19T11:23:37;101169.44;;;15.01;55.82
63582;BME280;49727;51.078;17.066;2023-05-19T11:38:38;101175.13;;;14.98;55.57
63582;BME280;49727;51.078;17.066;2023-05-19T11:53:39;101178.66;;;14.50;56.21
63582;BME280;49727;51.078;17.066;2023-05-19T12:08:40;101172.81;;;14.38;57.17
63582;BME280;49727;51.078;17.066;2023-05-19T12:23:41;101165.91;;;14.52;57.75
63582;BME280;49727;51.078;17.066;2023-05-19T12:38:42;101177.59;;;14.68;56.93
63582;BME280;49727;51.078;17.066;2023-05-19T12:53:42;101176.28;;;14.55;57.88
63582;BME280;49727;51.078;17.066;2023-05-19T13:08:45;101165.97;;;14.19;57.57
63582;BME280;49727;51.078;17.066;2023-05-19T13:23:46;101162.94;;;14.31;58.77
63582;BME280;49727;51.078;17.066;2023-05-19T13:38:46;101164.78;;;14.30;58.71
63582;BME280;49727;51.078;17.066;2023-05-19T13:53:47;101169.19;;;14.15;59.14
63582;BME280;49727;51.078;17.066;2023-05-19T14:08:47;101153.81;;;15.04;59.14
63582;BME280;49727;51.078;17.066;2023-05-19T14:23:47;101152.94;;;16.65;57.27
63582;BME280;49727;51.078;17.066;2023-05-19T14:38:48;101154.44;;;16.07;56.26
63582;BME280;49727;51.078;17.066;2023-05-19T14:53:48;101143.38;;;16.77;55.98
63582;BME280;49727;51.078;17.066;2023-05-19T15:08:49;101149.03;;;16.67;54.83
63582;BME280;49727;51.078;17.066;2023-05-19T15:23:50;101153.41;;;16.23;55.21
63582;BME280;49727;51.078;17.066;2023-05-19T15:38:50;101145.28;;;15.70;56.10
63582;BME280;49727;51.078;17.066;2023-05-19T15:53:50;101125.94;;;15.37;56.48
63582;BME280;49727;51.078;17.066;2023-05-19T16:08:51;101125.09;;;15.13;57.48
63582;BME280;49727;51.078;17.066;2023-05-19T16:23:51;101123.19;;;14.91;58.25
63582;BME280;49727;51.078;17.066;2023-05-19T16:38:52;101120.97;;;14.71;58.54
63582;BME280;49727;51.078;17.066;2023-05-19T16:53:53;101122.84;;;14.46;59.16
63582;BME280;49727;51.078;17.066;2023-05-19T17:08:53;101126.94;;;14.25;59.51
63582;BME280;49727;51.078;17.066;2023-05-19T17:23:54;101123.69;;;13.90;60.61
63582;BME280;49727;51.078;17.066;2023-05-19T17:38:54;101137.91;;;13.74;61.16
63582;BME280;49727;51.078;17.066;2023-05-19T17:53:54;101138.91;;;13.57;61.99
63582;BME280;49727;51.078;17.066;2023-05-19T18:08:57;101138.38;;;13.36;62.68
63582;BME280;49727;51.078;17.066;2023-05-19T18:23:59;101139.50;;;13.26;63.31
63582;BME280;49727;51.078;17.066;2023-05-19T18:39:02;101127.94;;;13.17;63.71
63582;BME280;49727;51.078;17.066;2023-05-19T18:54:03;101146.50;;;13.10;64.31
63582;BME280;49727;51.078;17.066;2023-05-19T19:09:03;101153.97;;;12.98;64.76
63582;BME280;49727;51.078;17.066;2023-05-19T19:24:04;101176.69;;;12.94;65.22
63582;BME280;49727;51.078;17.066;2023-05-19T19:39:04;101172.84;;;12.89;65.70
63582;BME280;49727;51.078;17.066;2023-05-19T19:54:05;101174.84;;;12.86;66.12
63582;BME280;49727;51.078;17.066;2023-05-19T20:09:05;101179.00;;;12.81;66.56
63582;BME280;49727;51.078;17.066;2023-05-19T20:24:05;101181.47;;;12.74;66.77
63582;BME280;49727;51.078;17.066;2023-05-19T20:39:06;101192.13;;;12.66;67.35
63582;BME280;49727;51.078;17.066;2023-05-19T20:54:08;101182.22;;;12.58;67.73
63582;BME280;49727;51.078;17.066;2023-05-19T21:09:09;101173.34;;;12.49;68.43
63582;BME280;49727;51.078;17.066;2023-05-19T21:24:10;101166.78;;;12.44;68.59
63582;BME280;49727;51.078;17.066;2023-05-19T21:39:11;101170.28;;;12.44;69.07
63582;BME280;49727;51.078;17.066;2023-05-19T21:54:12;101167.09;;;12.41;69.00
63582;BME280;49727;51.078;17.066;2023-05-19T22:09:12;101158.56;;;12.37;69.45
63582;BME280;49727;51.078;17.066;2023-05-19T22:24:13;101158.38;;;12.30;69.72
63582;BME280;49727;51.078;17.066;2023-05-19T22:39:13;101138.59;;;12.23;70.10
63582;BME280;49727;51.078;17.066;2023-05-19T22:54:14;101141.91;;;12.17;70.80
63582;BME280;49727;51.078;17.066;2023-05-19T23:09:14;101147.25;;;12.17;71.39
63582;BME280;49727;51.078;17.066;2023-05-19T23:24:15;101142.53;;;12.11;71.26
63582;BME280;49727;51.078;17.066;2023-05-19T23:39:15;101144.31;;;12.02;71.68
63582;BME280;49727;51.078;17.066;2023-05-19T23:54:15;101129.13;;;12.02;71.75
